Winkelman, Arizona
Current Conditions -  °F | °C
As of 6:47 AM on Thursday 23 Oct 2014 (Local Time) from KIWA Reporting Station
Few Clouds Few Clouds  
Wind Chill: 63°   Ceiling: Unl
Heat Index: 63°   Visibility: 45mi
Dew Point: 52°   Wind: 6mph
Humidity: 68%   Direction: 100°E
Pressure: 30.02"   Gusts: NA
Location:  32.99°N, 110.77°W
Report Text: KIWA 231347Z 10005KT 45SM FEW250 17/11 A3002
Loading
Personal Weather Stations






























Interactive Weather Map
Tropical Storm Tracking
New forecast layout! Learn more

10-Day Weather Forecast

Advertisements
Track Severe Weather on mobile